This is the latest recevied weather packets stored in our database for station/object W4TJP. If no packets are shown the sender has not sent any weather packets the latest 10 day(s).
| Time | Temp. | Humidity | Pressure | Rain* | Wind** | Luminosity | Snow |
|---|---|---|---|---|---|---|---|
| 1777841007 | 18.89° C | 41% | 1017.9 hPa | 0 mm | - | 503 W/m² | - |
| 1777840703 | 18.33° C | 42% | 1017.9 hPa | 0 mm | - | 515 W/m² | - |
| 1777840401 | 18.33° C | 44% | 1017.9 hPa | 0 mm | - | 539 W/m² | - |
| 1777840098 | 18.33° C | 44% | 1017.9 hPa | 0 mm | - | 544 W/m² | - |
| 1777839796 | 17.78° C | 43% | 1018.1 hPa | 0 mm | - | 529 W/m² | - |
| 1777839494 | 17.78° C | 43% | 1018.1 hPa | 0 mm | - | 571 W/m² | - |
| 1777839190 | 18.33° C | 42% | 1018.4 hPa | 0 mm | - | 541 W/m² | - |
| 1777838888 | 18.89° C | 45% | 1018.2 hPa | 0 mm | - | 553 W/m² | - |
| 1777838583 | 18.33° C | 43% | 1018.4 hPa | 0 mm | - | 597 W/m² | - |
| 1777838281 | 18.89° C | 43% | 1018.2 hPa | 0 mm | - | 605 W/m² | - |
| 1777837977 | 18.89° C | 46% | 1018.5 hPa | 0 mm | - | 623 W/m² | - |
| 1777837675 | 18.33° C | 47% | 1018.5 hPa | 0 mm | - | 635 W/m² | - |
| 1777837371 | 18.33° C | 48% | 1018.5 hPa | 0 mm | - | 636 W/m² | - |
| 1777837067 | 18.33° C | 48% | 1018.6 hPa | 0 mm | - | 633 W/m² | - |
| 1777836763 | 17.78° C | 50% | 1018.4 hPa | 0 mm | - | 609 W/m² | - |
| 1777836459 | 17.78° C | 49% | 1018.7 hPa | 0 mm | - | 640 W/m² | - |
| 1777836154 | 17.22° C | 49% | 1018.6 hPa | 0 mm | - | 645 W/m² | - |
| 1777835851 | 17.78° C | 48% | 1018.8 hPa | 0 mm | - | 652 W/m² | - |
| 1777835548 | 17.22° C | 50% | 1018.6 hPa | 0 mm | - | 654 W/m² | - |
| 1777835245 | 17.22° C | 47% | 1018.8 hPa | 0 mm | - | 628 W/m² | - |
| 1777834942 | 17.78° C | 47% | 1018.9 hPa | 0 mm | - | 676 W/m² | - |
| 1777834639 | 17.22° C | 45% | 1019.3 hPa | 0 mm | - | 688 W/m² | - |
| 1777834335 | 17.22° C | 45% | 1019.2 hPa | 0 mm | - | 699 W/m² | - |
| 1777834029 | 17.22° C | 45% | 1018.9 hPa | 0 mm | - | 701 W/m² | - |
| 1777833726 | 17.22° C | 45% | 1019.2 hPa | 0 mm | - | 701 W/m² | - |
* Rain latest hour (hover to see other rain measurements)
** Current wind speed in m/s (hover to see current wind gust speed)